sensor_id;sensor_type;location;lat;lon;timestamp;P1;durP1;ratioP1;P2;durP2;ratioP2
12385;SDS011;6257;57.634;18.310;2022-10-16T00:00:47;28.33;;;15.37;;
12385;SDS011;6257;57.634;18.310;2022-10-16T00:03:16;27.13;;;15.70;;
12385;SDS011;6257;57.634;18.310;2022-10-16T00:05:43;27.00;;;15.80;;
12385;SDS011;6257;57.634;18.310;2022-10-16T00:08:10;27.20;;;15.40;;
12385;SDS011;6257;57.634;18.310;2022-10-16T00:10:38;24.70;;;15.17;;
12385;SDS011;6257;57.634;18.310;2022-10-16T00:13:06;27.20;;;16.90;;
12385;SDS011;6257;57.634;18.310;2022-10-16T00:15:33;24.23;;;15.07;;
12385;SDS011;6257;57.634;18.310;2022-10-16T00:18:04;26.53;;;15.87;;
12385;SDS011;6257;57.634;18.310;2022-10-16T00:20:33;27.03;;;16.20;;
12385;SDS011;6257;57.634;18.310;2022-10-16T00:23:01;23.63;;;16.10;;
12385;SDS011;6257;57.634;18.310;2022-10-16T00:25:29;26.37;;;15.00;;
12385;SDS011;6257;57.634;18.310;2022-10-16T00:27:57;24.40;;;15.33;;
12385;SDS011;6257;57.634;18.310;2022-10-16T00:30:25;22.87;;;15.50;;
12385;SDS011;6257;57.634;18.310;2022-10-16T00:32:52;24.23;;;14.60;;
12385;SDS011;6257;57.634;18.310;2022-10-16T00:35:21;24.83;;;14.67;;
12385;SDS011;6257;57.634;18.310;2022-10-16T00:37:48;24.63;;;14.53;;
12385;SDS011;6257;57.634;18.310;2022-10-16T00:40:15;22.17;;;13.50;;
12385;SDS011;6257;57.634;18.310;2022-10-16T00:42:42;21.23;;;13.90;;
12385;SDS011;6257;57.634;18.310;2022-10-16T00:45:09;21.33;;;13.43;;
12385;SDS011;6257;57.634;18.310;2022-10-16T00:47:38;19.77;;;12.70;;
12385;SDS011;6257;57.634;18.310;2022-10-16T00:50:07;21.03;;;12.83;;
12385;SDS011;6257;57.634;18.310;2022-10-16T00:52:39;21.50;;;13.63;;
12385;SDS011;6257;57.634;18.310;2022-10-16T00:55:09;21.00;;;14.17;;
12385;SDS011;6257;57.634;18.310;2022-10-16T00:57:36;20.90;;;14.37;;
12385;SDS011;6257;57.634;18.310;2022-10-16T01:00:05;20.50;;;13.87;;
12385;SDS011;6257;57.634;18.310;2022-10-16T01:02:35;23.57;;;14.27;;
12385;SDS011;6257;57.634;18.310;2022-10-16T01:05:02;22.73;;;14.43;;
12385;SDS011;6257;57.634;18.310;2022-10-16T01:07:34;21.00;;;14.07;;
12385;SDS011;6257;57.634;18.310;2022-10-16T01:10:14;20.07;;;13.83;;
12385;SDS011;6257;57.634;18.310;2022-10-16T01:12:50;20.47;;;13.03;;
12385;SDS011;6257;57.634;18.310;2022-10-16T01:15:22;20.40;;;13.37;;
12385;SDS011;6257;57.634;18.310;2022-10-16T01:17:56;19.57;;;13.20;;
12385;SDS011;6257;57.634;18.310;2022-10-16T01:20:28;21.57;;;14.23;;
12385;SDS011;6257;57.634;18.310;2022-10-16T01:23:02;19.27;;;13.83;;
12385;SDS011;6257;57.634;18.310;2022-10-16T01:25:42;21.03;;;13.90;;
12385;SDS011;6257;57.634;18.310;2022-10-16T01:28:25;21.97;;;14.27;;
12385;SDS011;6257;57.634;18.310;2022-10-16T01:30:58;18.63;;;13.43;;
12385;SDS011;6257;57.634;18.310;2022-10-16T01:33:28;20.13;;;13.47;;
12385;SDS011;6257;57.634;18.310;2022-10-16T01:36:02;20.30;;;13.23;;
12385;SDS011;6257;57.634;18.310;2022-10-16T01:38:36;21.70;;;14.10;;
12385;SDS011;6257;57.634;18.310;2022-10-16T01:41:07;23.23;;;14.57;;
12385;SDS011;6257;57.634;18.310;2022-10-16T01:43:40;24.67;;;15.10;;
12385;SDS011;6257;57.634;18.310;2022-10-16T01:46:10;22.33;;;14.83;;
12385;SDS011;6257;57.634;18.310;2022-10-16T01:48:39;25.60;;;15.43;;
12385;SDS011;6257;57.634;18.310;2022-10-16T01:51:07;21.40;;;14.53;;
12385;SDS011;6257;57.634;18.310;2022-10-16T01:53:37;24.83;;;14.63;;
12385;SDS011;6257;57.634;18.310;2022-10-16T01:56:06;20.20;;;14.63;;
12385;SDS011;6257;57.634;18.310;2022-10-16T01:58:36;21.30;;;14.73;;
12385;SDS011;6257;57.634;18.310;2022-10-16T02:01:08;23.03;;;15.10;;
12385;SDS011;6257;57.634;18.310;2022-10-16T02:03:38;26.07;;;15.17;;
12385;SDS011;6257;57.634;18.310;2022-10-16T02:06:08;22.73;;;15.57;;
12385;SDS011;6257;57.634;18.310;2022-10-16T02:08:35;23.87;;;15.90;;
12385;SDS011;6257;57.634;18.310;2022-10-16T02:11:04;23.57;;;14.67;;
12385;SDS011;6257;57.634;18.310;2022-10-16T02:13:32;23.90;;;15.67;;
12385;SDS011;6257;57.634;18.310;2022-10-16T02:16:05;24.97;;;15.50;;
12385;SDS011;6257;57.634;18.310;2022-10-16T02:18:33;23.70;;;15.53;;
12385;SDS011;6257;57.634;18.310;2022-10-16T02:21:01;28.10;;;16.77;;
12385;SDS011;6257;57.634;18.310;2022-10-16T02:23:35;27.53;;;15.63;;
12385;SDS011;6257;57.634;18.310;2022-10-16T02:26:07;26.67;;;16.67;;
12385;SDS011;6257;57.634;18.310;2022-10-16T02:28:39;25.30;;;15.83;;
12385;SDS011;6257;57.634;18.310;2022-10-16T02:31:13;26.97;;;15.83;;
12385;SDS011;6257;57.634;18.310;2022-10-16T02:33:44;22.20;;;14.73;;
12385;SDS011;6257;57.634;18.310;2022-10-16T02:36:12;27.20;;;16.93;;
12385;SDS011;6257;57.634;18.310;2022-10-16T02:38:40;26.00;;;15.60;;
12385;SDS011;6257;57.634;18.310;2022-10-16T02:41:07;26.27;;;16.37;;
12385;SDS011;6257;57.634;18.310;2022-10-16T02:43:34;25.57;;;16.87;;
12385;SDS011;6257;57.634;18.310;2022-10-16T02:46:01;26.70;;;16.07;;
12385;SDS011;6257;57.634;18.310;2022-10-16T02:48:30;26.20;;;16.47;;
12385;SDS011;6257;57.634;18.310;2022-10-16T02:50:57;26.83;;;16.00;;
12385;SDS011;6257;57.634;18.310;2022-10-16T02:53:24;28.93;;;16.63;;
12385;SDS011;6257;57.634;18.310;2022-10-16T02:55:51;25.50;;;16.57;;
12385;SDS011;6257;57.634;18.310;2022-10-16T02:58:17;23.97;;;15.93;;
12385;SDS011;6257;57.634;18.310;2022-10-16T03:00:45;25.67;;;16.90;;
12385;SDS011;6257;57.634;18.310;2022-10-16T03:03:12;24.63;;;15.80;;
12385;SDS011;6257;57.634;18.310;2022-10-16T03:05:40;24.70;;;15.60;;
12385;SDS011;6257;57.634;18.310;2022-10-16T03:08:10;26.03;;;16.10;;
12385;SDS011;6257;57.634;18.310;2022-10-16T03:10:37;24.63;;;15.73;;
12385;SDS011;6257;57.634;18.310;2022-10-16T03:13:04;24.00;;;15.27;;
12385;SDS011;6257;57.634;18.310;2022-10-16T03:15:31;23.50;;;15.73;;
12385;SDS011;6257;57.634;18.310;2022-10-16T03:17:58;25.33;;;16.37;;
12385;SDS011;6257;57.634;18.310;2022-10-16T03:20:25;24.20;;;16.37;;
12385;SDS011;6257;57.634;18.310;2022-10-16T03:22:54;24.00;;;16.07;;
12385;SDS011;6257;57.634;18.310;2022-10-16T03:25:21;23.73;;;15.77;;
12385;SDS011;6257;57.634;18.310;2022-10-16T03:27:48;22.53;;;15.50;;
12385;SDS011;6257;57.634;18.310;2022-10-16T03:30:15;25.23;;;16.07;;
12385;SDS011;6257;57.634;18.310;2022-10-16T03:32:43;22.67;;;15.60;;
12385;SDS011;6257;57.634;18.310;2022-10-16T03:35:11;23.00;;;15.67;;
12385;SDS011;6257;57.634;18.310;2022-10-16T03:37:38;21.10;;;15.67;;
12385;SDS011;6257;57.634;18.310;2022-10-16T03:40:07;24.57;;;15.77;;
12385;SDS011;6257;57.634;18.310;2022-10-16T03:42:35;24.33;;;15.63;;
12385;SDS011;6257;57.634;18.310;2022-10-16T03:45:02;23.03;;;15.87;;
12385;SDS011;6257;57.634;18.310;2022-10-16T03:47:29;22.77;;;15.97;;
12385;SDS011;6257;57.634;18.310;2022-10-16T03:49:58;23.37;;;16.00;;
12385;SDS011;6257;57.634;18.310;2022-10-16T03:52:25;23.20;;;15.87;;
12385;SDS011;6257;57.634;18.310;2022-10-16T03:54:52;25.43;;;16.07;;
12385;SDS011;6257;57.634;18.310;2022-10-16T03:57:21;25.60;;;16.87;;
12385;SDS011;6257;57.634;18.310;2022-10-16T03:59:47;23.13;;;15.60;;
12385;SDS011;6257;57.634;18.310;2022-10-16T04:02:14;25.53;;;16.67;;
12385;SDS011;6257;57.634;18.310;2022-10-16T04:04:41;25.50;;;16.80;;
12385;SDS011;6257;57.634;18.310;2022-10-16T04:07:08;26.00;;;16.37;;
12385;SDS011;6257;57.634;18.310;2022-10-16T04:09:35;28.30;;;16.23;;
12385;SDS011;6257;57.634;18.310;2022-10-16T04:12:02;23.50;;;16.33;;
12385;SDS011;6257;57.634;18.310;2022-10-16T04:14:31;25.03;;;17.27;;
12385;SDS011;6257;57.634;18.310;2022-10-16T04:16:58;26.10;;;16.80;;
12385;SDS011;6257;57.634;18.310;2022-10-16T04:19:25;25.00;;;17.07;;
12385;SDS011;6257;57.634;18.310;2022-10-16T04:21:52;27.93;;;17.60;;
12385;SDS011;6257;57.634;18.310;2022-10-16T04:24:18;24.70;;;18.03;;
12385;SDS011;6257;57.634;18.310;2022-10-16T04:26:45;24.33;;;16.67;;
12385;SDS011;6257;57.634;18.310;2022-10-16T04:29:12;27.63;;;18.67;;
12385;SDS011;6257;57.634;18.310;2022-10-16T04:31:41;28.17;;;18.57;;
12385;SDS011;6257;57.634;18.310;2022-10-16T04:34:08;28.27;;;18.03;;
12385;SDS011;6257;57.634;18.310;2022-10-16T04:36:35;27.50;;;18.77;;
12385;SDS011;6257;57.634;18.310;2022-10-16T04:39:01;29.43;;;19.00;;
12385;SDS011;6257;57.634;18.310;2022-10-16T04:41:28;27.93;;;18.30;;
12385;SDS011;6257;57.634;18.310;2022-10-16T04:43:55;28.97;;;18.67;;
12385;SDS011;6257;57.634;18.310;2022-10-16T04:46:22;27.57;;;18.37;;
12385;SDS011;6257;57.634;18.310;2022-10-16T04:48:51;27.90;;;19.20;;
12385;SDS011;6257;57.634;18.310;2022-10-16T04:51:18;28.40;;;18.97;;
12385;SDS011;6257;57.634;18.310;2022-10-16T04:53:45;31.73;;;20.10;;
12385;SDS011;6257;57.634;18.310;2022-10-16T04:56:13;31.23;;;20.33;;
12385;SDS011;6257;57.634;18.310;2022-10-16T04:58:40;29.90;;;20.27;;
12385;SDS011;6257;57.634;18.310;2022-10-16T05:01:07;29.77;;;19.70;;
12385;SDS011;6257;57.634;18.310;2022-10-16T05:03:34;31.43;;;19.47;;
12385;SDS011;6257;57.634;18.310;2022-10-16T05:06:04;28.23;;;19.27;;
12385;SDS011;6257;57.634;18.310;2022-10-16T05:08:31;28.83;;;20.03;;
12385;SDS011;6257;57.634;18.310;2022-10-16T05:10:58;33.90;;;20.13;;
12385;SDS011;6257;57.634;18.310;2022-10-16T05:13:26;31.57;;;20.20;;
12385;SDS011;6257;57.634;18.310;2022-10-16T05:15:54;35.10;;;20.67;;
12385;SDS011;6257;57.634;18.310;2022-10-16T05:18:21;33.50;;;20.20;;
12385;SDS011;6257;57.634;18.310;2022-10-16T05:20:48;34.87;;;21.33;;
12385;SDS011;6257;57.634;18.310;2022-10-16T05:23:16;33.27;;;21.30;;
12385;SDS011;6257;57.634;18.310;2022-10-16T05:25:43;37.50;;;21.73;;
12385;SDS011;6257;57.634;18.310;2022-10-16T05:28:17;39.83;;;21.67;;
12385;SDS011;6257;57.634;18.310;2022-10-16T05:30:44;40.13;;;22.90;;
12385;SDS011;6257;57.634;18.310;2022-10-16T05:33:11;40.10;;;22.17;;
12385;SDS011;6257;57.634;18.310;2022-10-16T05:35:38;40.17;;;23.23;;
12385;SDS011;6257;57.634;18.310;2022-10-16T05:38:05;37.87;;;22.27;;
12385;SDS011;6257;57.634;18.310;2022-10-16T05:40:33;43.43;;;23.23;;
12385;SDS011;6257;57.634;18.310;2022-10-16T05:43:00;39.50;;;22.47;;
12385;SDS011;6257;57.634;18.310;2022-10-16T05:45:27;43.43;;;24.37;;
12385;SDS011;6257;57.634;18.310;2022-10-16T05:47:54;44.27;;;23.97;;
12385;SDS011;6257;57.634;18.310;2022-10-16T05:50:21;45.53;;;24.73;;
12385;SDS011;6257;57.634;18.310;2022-10-16T05:52:48;41.80;;;24.53;;
12385;SDS011;6257;57.634;18.310;2022-10-16T05:55:15;38.23;;;22.50;;
12385;SDS011;6257;57.634;18.310;2022-10-16T05:57:43;41.73;;;22.73;;
12385;SDS011;6257;57.634;18.310;2022-10-16T06:00:10;43.57;;;24.47;;
12385;SDS011;6257;57.634;18.310;2022-10-16T06:02:38;37.70;;;22.27;;
12385;SDS011;6257;57.634;18.310;2022-10-16T06:05:05;32.80;;;21.57;;
12385;SDS011;6257;57.634;18.310;2022-10-16T06:07:34;37.30;;;21.23;;
12385;SDS011;6257;57.634;18.310;2022-10-16T06:10:02;36.00;;;21.87;;
12385;SDS011;6257;57.634;18.310;2022-10-16T06:12:30;38.30;;;22.90;;
12385;SDS011;6257;57.634;18.310;2022-10-16T06:14:58;33.93;;;21.57;;
12385;SDS011;6257;57.634;18.310;2022-10-16T06:17:25;35.13;;;21.97;;
12385;SDS011;6257;57.634;18.310;2022-10-16T06:19:52;34.97;;;21.80;;
12385;SDS011;6257;57.634;18.310;2022-10-16T06:22:19;37.27;;;21.37;;
12385;SDS011;6257;57.634;18.310;2022-10-16T06:24:46;31.10;;;20.47;;
12385;SDS011;6257;57.634;18.310;2022-10-16T06:27:14;40.03;;;21.63;;
12385;SDS011;6257;57.634;18.310;2022-10-16T06:29:41;40.40;;;22.07;;
12385;SDS011;6257;57.634;18.310;2022-10-16T06:32:11;38.00;;;22.00;;
12385;SDS011;6257;57.634;18.310;2022-10-16T06:34:38;44.37;;;22.93;;
12385;SDS011;6257;57.634;18.310;2022-10-16T06:37:06;38.27;;;21.87;;
12385;SDS011;6257;57.634;18.310;2022-10-16T06:39:33;37.43;;;21.03;;
12385;SDS011;6257;57.634;18.310;2022-10-16T06:41:59;35.37;;;21.27;;
12385;SDS011;6257;57.634;18.310;2022-10-16T06:44:26;35.77;;;21.73;;
12385;SDS011;6257;57.634;18.310;2022-10-16T06:46:53;35.17;;;21.03;;
12385;SDS011;6257;57.634;18.310;2022-10-16T06:49:22;37.53;;;21.53;;
12385;SDS011;6257;57.634;18.310;2022-10-16T06:51:49;37.57;;;21.90;;
12385;SDS011;6257;57.634;18.310;2022-10-16T06:54:16;35.30;;;21.57;;
12385;SDS011;6257;57.634;18.310;2022-10-16T06:56:43;37.80;;;21.77;;
12385;SDS011;6257;57.634;18.310;2022-10-16T06:59:11;38.60;;;22.33;;
12385;SDS011;6257;57.634;18.310;2022-10-16T07:01:38;37.80;;;21.47;;
12385;SDS011;6257;57.634;18.310;2022-10-16T07:04:05;31.70;;;21.53;;
12385;SDS011;6257;57.634;18.310;2022-10-16T07:06:33;33.87;;;20.80;;
12385;SDS011;6257;57.634;18.310;2022-10-16T07:09:02;30.63;;;19.83;;
12385;SDS011;6257;57.634;18.310;2022-10-16T07:11:30;27.80;;;18.40;;
12385;SDS011;6257;57.634;18.310;2022-10-16T07:13:57;29.23;;;18.23;;
12385;SDS011;6257;57.634;18.310;2022-10-16T07:16:25;31.73;;;19.80;;
12385;SDS011;6257;57.634;18.310;2022-10-16T07:18:53;27.10;;;18.77;;
12385;SDS011;6257;57.634;18.310;2022-10-16T07:21:23;28.13;;;17.80;;
12385;SDS011;6257;57.634;18.310;2022-10-16T07:23:53;29.53;;;17.80;;
12385;SDS011;6257;57.634;18.310;2022-10-16T08:18:17;18.47;;;11.60;;
12385;SDS011;6257;57.634;18.310;2022-10-16T08:20:44;16.80;;;11.80;;
12385;SDS011;6257;57.634;18.310;2022-10-16T08:23:12;17.03;;;12.03;;
12385;SDS011;6257;57.634;18.310;2022-10-16T08:25:39;18.07;;;12.33;;
12385;SDS011;6257;57.634;18.310;2022-10-16T08:28:07;16.90;;;11.53;;
12385;SDS011;6257;57.634;18.310;2022-10-16T08:30:36;16.50;;;11.77;;
12385;SDS011;6257;57.634;18.310;2022-10-16T08:33:03;15.33;;;11.27;;
12385;SDS011;6257;57.634;18.310;2022-10-16T08:35:32;14.33;;;10.23;;
12385;SDS011;6257;57.634;18.310;2022-10-16T08:37:59;11.70;;;9.13;;
12385;SDS011;6257;57.634;18.310;2022-10-16T08:40:29;11.63;;;8.63;;
12385;SDS011;6257;57.634;18.310;2022-10-16T08:43:11;13.03;;;7.97;;
12385;SDS011;6257;57.634;18.310;2022-10-16T08:48:46;9.03;;;7.30;;
12385;SDS011;6257;57.634;18.310;2022-10-16T08:51:19;9.47;;;6.30;;
12385;SDS011;6257;57.634;18.310;2022-10-16T08:53:49;11.73;;;7.57;;
12385;SDS011;6257;57.634;18.310;2022-10-16T08:56:20;10.40;;;7.90;;
12385;SDS011;6257;57.634;18.310;2022-10-16T08:58:48;8.90;;;7.30;;
12385;SDS011;6257;57.634;18.310;2022-10-16T09:01:17;10.67;;;7.50;;
12385;SDS011;6257;57.634;18.310;2022-10-16T09:03:55;9.77;;;7.57;;
12385;SDS011;6257;57.634;18.310;2022-10-16T09:06:49;10.97;;;7.93;;
12385;SDS011;6257;57.634;18.310;2022-10-16T09:09:24;9.10;;;7.67;;
12385;SDS011;6257;57.634;18.310;2022-10-16T09:12:01;10.47;;;7.27;;
12385;SDS011;6257;57.634;18.310;2022-10-16T09:14:42;8.43;;;6.80;;
12385;SDS011;6257;57.634;18.310;2022-10-16T09:17:22;8.60;;;6.17;;
12385;SDS011;6257;57.634;18.310;2022-10-16T09:20:03;9.73;;;6.70;;
12385;SDS011;6257;57.634;18.310;2022-10-16T09:22:43;11.53;;;7.60;;
12385;SDS011;6257;57.634;18.310;2022-10-16T09:25:11;8.70;;;6.37;;
12385;SDS011;6257;57.634;18.310;2022-10-16T09:27:40;8.40;;;6.57;;
12385;SDS011;6257;57.634;18.310;2022-10-16T09:30:12;9.80;;;6.37;;
12385;SDS011;6257;57.634;18.310;2022-10-16T09:32:41;8.33;;;6.80;;
12385;SDS011;6257;57.634;18.310;2022-10-16T09:35:11;9.77;;;7.73;;
12385;SDS011;6257;57.634;18.310;2022-10-16T09:37:41;8.00;;;6.80;;
12385;SDS011;6257;57.634;18.310;2022-10-16T09:40:12;10.70;;;7.17;;
12385;SDS011;6257;57.634;18.310;2022-10-16T09:42:49;10.00;;;6.70;;
12385;SDS011;6257;57.634;18.310;2022-10-16T09:45:23;8.73;;;6.13;;
12385;SDS011;6257;57.634;18.310;2022-10-16T09:47:50;7.63;;;6.00;;
12385;SDS011;6257;57.634;18.310;2022-10-16T09:50:21;7.53;;;6.10;;
12385;SDS011;6257;57.634;18.310;2022-10-16T09:53:01;7.83;;;5.77;;
12385;SDS011;6257;57.634;18.310;2022-10-16T09:55:30;7.63;;;5.33;;
12385;SDS011;6257;57.634;18.310;2022-10-16T09:57:57;5.60;;;4.63;;
12385;SDS011;6257;57.634;18.310;2022-10-16T10:00:24;5.57;;;4.60;;
12385;SDS011;6257;57.634;18.310;2022-10-16T10:02:51;5.47;;;4.33;;
12385;SDS011;6257;57.634;18.310;2022-10-16T10:05:20;6.80;;;4.60;;
12385;SDS011;6257;57.634;18.310;2022-10-16T10:07:54;6.50;;;4.73;;
12385;SDS011;6257;57.634;18.310;2022-10-16T10:10:24;4.90;;;4.40;;
12385;SDS011;6257;57.634;18.310;2022-10-16T10:12:53;5.70;;;3.80;;
12385;SDS011;6257;57.634;18.310;2022-10-16T10:15:21;5.10;;;4.60;;
12385;SDS011;6257;57.634;18.310;2022-10-16T10:17:52;45.97;;;6.83;;
12385;SDS011;6257;57.634;18.310;2022-10-16T10:20:24;8.47;;;5.00;;
12385;SDS011;6257;57.634;18.310;2022-10-16T10:22:54;8.67;;;5.30;;
12385;SDS011;6257;57.634;18.310;2022-10-16T10:25:27;8.97;;;5.80;;
12385;SDS011;6257;57.634;18.310;2022-10-16T10:28:16;8.53;;;5.73;;
12385;SDS011;6257;57.634;18.310;2022-10-16T10:30:52;7.70;;;5.87;;
12385;SDS011;6257;57.634;18.310;2022-10-16T10:33:32;10.07;;;5.80;;
12385;SDS011;6257;57.634;18.310;2022-10-16T10:36:10;8.73;;;5.90;;
12385;SDS011;6257;57.634;18.310;2022-10-16T10:38:49;9.10;;;5.60;;
12385;SDS011;6257;57.634;18.310;2022-10-16T10:41:22;13.80;;;6.23;;
12385;SDS011;6257;57.634;18.310;2022-10-16T10:44:11;8.20;;;6.00;;
12385;SDS011;6257;57.634;18.310;2022-10-16T10:46:48;8.93;;;5.97;;
12385;SDS011;6257;57.634;18.310;2022-10-16T10:49:24;8.03;;;5.40;;
12385;SDS011;6257;57.634;18.310;2022-10-16T10:52:02;8.90;;;6.07;;
12385;SDS011;6257;57.634;18.310;2022-10-16T10:54:41;9.20;;;5.53;;
12385;SDS011;6257;57.634;18.310;2022-10-16T10:57:19;10.50;;;6.00;;
12385;SDS011;6257;57.634;18.310;2022-10-16T10:59:57;7.43;;;5.47;;
12385;SDS011;6257;57.634;18.310;2022-10-16T11:02:41;9.03;;;5.50;;
12385;SDS011;6257;57.634;18.310;2022-10-16T11:05:26;7.80;;;5.77;;
12385;SDS011;6257;57.634;18.310;2022-10-16T11:07:57;10.53;;;6.27;;
12385;SDS011;6257;57.634;18.310;2022-10-16T11:10:28;8.77;;;6.10;;
12385;SDS011;6257;57.634;18.310;2022-10-16T11:13:02;7.10;;;5.73;;
12385;SDS011;6257;57.634;18.310;2022-10-16T11:15:40;8.80;;;6.27;;
12385;SDS011;6257;57.634;18.310;2022-10-16T11:18:11;10.63;;;6.17;;
12385;SDS011;6257;57.634;18.310;2022-10-16T11:20:45;6.87;;;5.63;;
12385;SDS011;6257;57.634;18.310;2022-10-16T11:23:18;9.30;;;5.93;;
12385;SDS011;6257;57.634;18.310;2022-10-16T11:25:53;7.70;;;5.20;;
12385;SDS011;6257;57.634;18.310;2022-10-16T11:28:23;7.63;;;5.07;;
12385;SDS011;6257;57.634;18.310;2022-10-16T11:30:57;7.40;;;5.33;;
12385;SDS011;6257;57.634;18.310;2022-10-16T11:33:30;8.17;;;5.70;;
12385;SDS011;6257;57.634;18.310;2022-10-16T11:36:03;6.80;;;5.43;;
12385;SDS011;6257;57.634;18.310;2022-10-16T11:38:36;8.63;;;5.60;;
12385;SDS011;6257;57.634;18.310;2022-10-16T11:41:12;9.47;;;6.10;;
12385;SDS011;6257;57.634;18.310;2022-10-16T11:43:48;8.97;;;5.40;;
12385;SDS011;6257;57.634;18.310;2022-10-16T11:46:22;10.30;;;5.40;;
12385;SDS011;6257;57.634;18.310;2022-10-16T11:48:54;8.10;;;5.63;;
12385;SDS011;6257;57.634;18.310;2022-10-16T11:51:29;9.07;;;5.50;;
12385;SDS011;6257;57.634;18.310;2022-10-16T11:54:02;7.40;;;5.53;;
12385;SDS011;6257;57.634;18.310;2022-10-16T11:56:35;6.97;;;5.30;;
12385;SDS011;6257;57.634;18.310;2022-10-16T11:59:06;9.13;;;5.40;;
12385;SDS011;6257;57.634;18.310;2022-10-16T12:01:42;7.67;;;4.97;;
12385;SDS011;6257;57.634;18.310;2022-10-16T12:04:14;9.00;;;5.37;;
12385;SDS011;6257;57.634;18.310;2022-10-16T12:06:50;7.50;;;5.00;;
12385;SDS011;6257;57.634;18.310;2022-10-16T12:09:25;8.17;;;5.47;;
12385;SDS011;6257;57.634;18.310;2022-10-16T12:11:55;10.53;;;5.67;;
12385;SDS011;6257;57.634;18.310;2022-10-16T12:14:33;11.07;;;5.87;;
12385;SDS011;6257;57.634;18.310;2022-10-16T12:17:02;6.53;;;4.80;;
12385;SDS011;6257;57.634;18.310;2022-10-16T12:19:56;8.43;;;5.10;;
12385;SDS011;6257;57.634;18.310;2022-10-16T12:22:26;10.10;;;4.90;;
12385;SDS011;6257;57.634;18.310;2022-10-16T12:24:56;6.87;;;4.23;;
12385;SDS011;6257;57.634;18.310;2022-10-16T12:27:27;6.17;;;4.20;;
12385;SDS011;6257;57.634;18.310;2022-10-16T12:29:56;7.87;;;4.30;;
12385;SDS011;6257;57.634;18.310;2022-10-16T12:32:27;5.90;;;3.80;;
12385;SDS011;6257;57.634;18.310;2022-10-16T12:34:56;5.20;;;3.67;;
12385;SDS011;6257;57.634;18.310;2022-10-16T12:37:25;4.97;;;3.10;;
12385;SDS011;6257;57.634;18.310;2022-10-16T12:39:55;6.07;;;2.80;;
12385;SDS011;6257;57.634;18.310;2022-10-16T12:42:33;5.20;;;2.90;;
12385;SDS011;6257;57.634;18.310;2022-10-16T12:45:00;5.23;;;2.57;;
12385;SDS011;6257;57.634;18.310;2022-10-16T12:47:47;5.50;;;2.30;;
12385;SDS011;6257;57.634;18.310;2022-10-16T12:50:29;4.73;;;2.53;;
12385;SDS011;6257;57.634;18.310;2022-10-16T12:52:58;8.07;;;2.57;;
12385;SDS011;6257;57.634;18.310;2022-10-16T12:55:26;7.00;;;2.40;;
12385;SDS011;6257;57.634;18.310;2022-10-16T12:58:03;5.33;;;2.30;;
12385;SDS011;6257;57.634;18.310;2022-10-16T13:00:38;3.67;;;2.30;;
12385;SDS011;6257;57.634;18.310;2022-10-16T13:06:15;4.53;;;2.33;;
12385;SDS011;6257;57.634;18.310;2022-10-16T13:09:02;4.20;;;2.70;;
12385;SDS011;6257;57.634;18.310;2022-10-16T13:11:43;8.63;;;3.10;;
12385;SDS011;6257;57.634;18.310;2022-10-16T13:14:33;4.73;;;3.00;;
12385;SDS011;6257;57.634;18.310;2022-10-16T13:17:15;5.93;;;2.77;;
12385;SDS011;6257;57.634;18.310;2022-10-16T13:19:50;7.27;;;2.80;;
12385;SDS011;6257;57.634;18.310;2022-10-16T13:22:27;4.87;;;2.40;;
12385;SDS011;6257;57.634;18.310;2022-10-16T13:25:02;6.67;;;2.60;;
12385;SDS011;6257;57.634;18.310;2022-10-16T13:27:44;5.90;;;2.50;;
12385;SDS011;6257;57.634;18.310;2022-10-16T13:30:20;8.27;;;2.63;;
12385;SDS011;6257;57.634;18.310;2022-10-16T13:32:50;5.60;;;2.57;;
12385;SDS011;6257;57.634;18.310;2022-10-16T13:35:26;8.50;;;2.63;;
12385;SDS011;6257;57.634;18.310;2022-10-16T13:38:05;7.10;;;2.67;;
12385;SDS011;6257;57.634;18.310;2022-10-16T13:40:47;9.67;;;2.93;;
12385;SDS011;6257;57.634;18.310;2022-10-16T13:43:16;9.30;;;2.60;;
12385;SDS011;6257;57.634;18.310;2022-10-16T13:45:53;9.60;;;2.73;;
12385;SDS011;6257;57.634;18.310;2022-10-16T13:48:25;5.17;;;2.37;;
12385;SDS011;6257;57.634;18.310;2022-10-16T13:51:02;5.37;;;2.73;;
12385;SDS011;6257;57.634;18.310;2022-10-16T13:53:31;5.33;;;2.63;;
12385;SDS011;6257;57.634;18.310;2022-10-16T13:56:01;4.23;;;2.17;;
12385;SDS011;6257;57.634;18.310;2022-10-16T13:58:30;5.57;;;2.53;;
12385;SDS011;6257;57.634;18.310;2022-10-16T14:01:00;6.97;;;2.50;;
12385;SDS011;6257;57.634;18.310;2022-10-16T14:03:30;6.33;;;2.60;;
12385;SDS011;6257;57.634;18.310;2022-10-16T14:05:59;8.50;;;2.60;;
12385;SDS011;6257;57.634;18.310;2022-10-16T14:08:29;4.80;;;2.23;;
12385;SDS011;6257;57.634;18.310;2022-10-16T14:10:57;7.00;;;2.47;;
12385;SDS011;6257;57.634;18.310;2022-10-16T14:13:28;4.40;;;2.37;;
12385;SDS011;6257;57.634;18.310;2022-10-16T14:15:59;6.90;;;2.60;;
12385;SDS011;6257;57.634;18.310;2022-10-16T14:18:31;5.67;;;2.47;;
12385;SDS011;6257;57.634;18.310;2022-10-16T14:21:02;5.47;;;2.37;;
12385;SDS011;6257;57.634;18.310;2022-10-16T14:23:31;4.27;;;2.17;;
12385;SDS011;6257;57.634;18.310;2022-10-16T14:26:15;7.00;;;2.70;;
12385;SDS011;6257;57.634;18.310;2022-10-16T14:28:44;5.77;;;2.73;;
12385;SDS011;6257;57.634;18.310;2022-10-16T14:31:31;7.80;;;2.93;;
12385;SDS011;6257;57.634;18.310;2022-10-16T14:33:59;8.53;;;2.70;;
12385;SDS011;6257;57.634;18.310;2022-10-16T14:36:26;8.47;;;2.70;;
12385;SDS011;6257;57.634;18.310;2022-10-16T14:38:57;10.60;;;3.47;;
12385;SDS011;6257;57.634;18.310;2022-10-16T14:41:26;6.30;;;3.37;;
12385;SDS011;6257;57.634;18.310;2022-10-16T14:43:54;6.27;;;3.37;;
12385;SDS011;6257;57.634;18.310;2022-10-16T14:46:28;7.17;;;2.90;;
12385;SDS011;6257;57.634;18.310;2022-10-16T14:49:02;7.17;;;3.47;;
12385;SDS011;6257;57.634;18.310;2022-10-16T14:51:31;5.70;;;3.10;;
12385;SDS011;6257;57.634;18.310;2022-10-16T14:53:58;6.40;;;2.93;;
12385;SDS011;6257;57.634;18.310;2022-10-16T14:56:25;6.87;;;3.50;;
12385;SDS011;6257;57.634;18.310;2022-10-16T14:58:56;5.63;;;3.30;;
12385;SDS011;6257;57.634;18.310;2022-10-16T15:01:23;5.80;;;3.20;;
12385;SDS011;6257;57.634;18.310;2022-10-16T15:03:52;6.33;;;3.27;;
12385;SDS011;6257;57.634;18.310;2022-10-16T15:06:20;7.73;;;3.80;;
12385;SDS011;6257;57.634;18.310;2022-10-16T15:08:48;5.67;;;3.53;;
12385;SDS011;6257;57.634;18.310;2022-10-16T15:11:15;8.30;;;3.77;;
12385;SDS011;6257;57.634;18.310;2022-10-16T15:13:44;6.53;;;3.47;;
12385;SDS011;6257;57.634;18.310;2022-10-16T15:16:12;5.67;;;3.67;;
12385;SDS011;6257;57.634;18.310;2022-10-16T15:18:40;8.93;;;3.20;;
12385;SDS011;6257;57.634;18.310;2022-10-16T15:21:08;10.63;;;3.40;;
12385;SDS011;6257;57.634;18.310;2022-10-16T15:23:48;8.60;;;3.83;;
12385;SDS011;6257;57.634;18.310;2022-10-16T15:26:15;7.83;;;3.37;;
12385;SDS011;6257;57.634;18.310;2022-10-16T15:28:42;5.40;;;3.10;;
12385;SDS011;6257;57.634;18.310;2022-10-16T15:31:10;6.80;;;3.67;;
12385;SDS011;6257;57.634;18.310;2022-10-16T15:33:37;6.73;;;3.67;;
12385;SDS011;6257;57.634;18.310;2022-10-16T15:36:04;8.70;;;2.97;;
12385;SDS011;6257;57.634;18.310;2022-10-16T15:38:32;6.63;;;3.20;;
12385;SDS011;6257;57.634;18.310;2022-10-16T15:41:00;6.20;;;3.20;;
12385;SDS011;6257;57.634;18.310;2022-10-16T15:43:27;7.17;;;2.77;;
12385;SDS011;6257;57.634;18.310;2022-10-16T15:45:58;6.20;;;2.60;;
12385;SDS011;6257;57.634;18.310;2022-10-16T15:48:26;7.93;;;2.97;;
12385;SDS011;6257;57.634;18.310;2022-10-16T15:50:54;7.87;;;3.43;;